Terminal Aerodrome Forecast
Issued by NWS Caribou, ME

Home | Current Version | Previous Version | Text Only | Print | Product List | Glossary On
Versions: 1 2 3 4 5 6 7 8 9 10 11 12 13 14 15 16 17 18 19 20 21 22
000
FTUS41 KCAR 302100 AAB
TAFBGR
TAF AMD
KBGR 302108Z 3021/0118 VRB03KT P6SM -DZ SCT012 BKN030
     FM302300 VRB03KT P6SM -DZ BKN015
     FM010100 VRB03KT P6SM BKN012
     FM010300 03005KT P6SM BKN003
     FM011600 03008KT P6SM BKN020
     FM011700 03008KT P6SM BKN025=

USA.gov is the U.S. government's official web portal to all federal, state and local government web resources and services.